Time;durP1;ratioP1;P1;durP2;ratioP2;P2;SDS_P1;SDS_P2;PMS_P1;PMS_P2;Temp;Humidity;BMP_temperature;BMP_pressure;BME280_temperature;BME280_humidity;BME280_pressure;Samples;Min_cycle;Max_cycle;Signal;HPM_P1;HPM_P2
2022/11/25 00:00:26;;;;;;;140.23;38.85;;;;;;;;;;5129770;27;20035;-42
2022/11/25 00:02:53;;;;;;;151.65;39.47;;;;;;;;;;5130081;27;20518;-41
2022/11/25 00:05:20;;;;;;;143.73;39.28;;;;;;;;;;5130216;27;21119;-41
2022/11/25 00:07:46;;;;;;;139.73;37.22;;;;;;;;;;5130511;27;20039;-41
2022/11/25 00:10:12;;;;;;;133.32;36.70;;;;;;;;;;5129569;27;20043;-41
2022/11/25 00:12:39;;;;;;;148.52;38.60;;;;;;;;;;5129518;27;20039;-41
2022/11/25 00:15:06;;;;;;;132.88;35.05;;;;;;;;;;5129636;27;20062;-41
2022/11/25 00:17:32;;;;;;;145.65;40.63;;;;;;;;;;5129457;27;20122;-41
2022/11/25 00:20:00;;;;;;;155.05;36.92;;;;;;;;;;5130008;27;20062;-41
2022/11/25 00:22:27;;;;;;;137.15;36.42;;;;;;;;;;5128253;27;20039;-41
2022/11/25 00:24:53;;;;;;;133.57;36.70;;;;;;;;;;5127671;27;20462;-42
2022/11/25 00:27:19;;;;;;;117.28;33.58;;;;;;;;;;5128703;27;20046;-41
2022/11/25 00:29:46;;;;;;;98.93;29.80;;;;;;;;;;5129942;27;20035;-42
2022/11/25 00:32:12;;;;;;;96.50;29.58;;;;;;;;;;5129794;27;20479;-41
2022/11/25 00:34:39;;;;;;;95.70;30.52;;;;;;;;;;5109502;27;20541;-42
2022/11/25 00:37:06;;;;;;;106.40;32.10;;;;;;;;;;5110097;27;20049;-41
2022/11/25 00:39:33;;;;;;;95.38;30.20;;;;;;;;;;5128850;27;20046;-42
2022/11/25 00:44:44;;;;;;;91.90;27.10;;;;;;;;;;5128834;27;20067;-41
2022/11/25 00:47:10;;;;;;;90.72;27.67;;;;;;;;;;5129939;27;20039;-41
2022/11/25 00:49:38;;;;;;;95.65;30.98;;;;;;;;;;5128159;27;20043;-41
2022/11/25 00:52:05;;;;;;;83.07;25.45;;;;;;;;;;5128288;27;20410;-41
2022/11/25 00:54:32;;;;;;;81.07;26.15;;;;;;;;;;5108984;27;20043;-41
2022/11/25 00:56:58;;;;;;;93.57;26.27;;;;;;;;;;5128710;27;20057;-41
2022/11/25 00:59:27;;;;;;;87.50;28.27;;;;;;;;;;5110614;28;20039;-41
2022/11/25 01:01:55;;;;;;;91.80;27.58;;;;;;;;;;5107558;27;20055;-42
2022/11/25 01:04:21;;;;;;;75.10;24.15;;;;;;;;;;5128454;27;20126;-42
2022/11/25 01:06:48;;;;;;;78.63;26.05;;;;;;;;;;5110299;27;20078;-42
2022/11/25 01:09:15;;;;;;;79.28;24.85;;;;;;;;;;5128369;27;20043;-41
2022/11/25 01:11:41;;;;;;;77.30;24.23;;;;;;;;;;5128772;27;20050;-41
2022/11/25 01:14:08;;;;;;;73.72;23.48;;;;;;;;;;5104172;27;20054;-43
2022/11/25 01:16:34;;;;;;;75.38;23.67;;;;;;;;;;5127862;27;20039;-42
2022/11/25 01:19:01;;;;;;;71.90;23.85;;;;;;;;;;5127262;27;20047;-41
2022/11/25 01:21:32;;;;;;;84.82;25.10;;;;;;;;;;5109627;28;20049;-42
2022/11/25 01:23:59;;;;;;;81.95;26.20;;;;;;;;;;5105697;27;20066;-41
2022/11/25 01:26:26;;;;;;;83.35;25.55;;;;;;;;;;5128338;27;20031;-41
2022/11/25 01:28:54;;;;;;;78.45;25.63;;;;;;;;;;5127555;27;20066;-42
2022/11/25 01:31:22;;;;;;;78.18;23.83;;;;;;;;;;5110292;28;20043;-42
2022/11/25 01:33:56;;;;;;;88.05;27.35;;;;;;;;;;5103520;27;20104;-41
2022/11/25 01:36:23;;;;;;;91.03;27.52;;;;;;;;;;5112232;27;20045;-41
2022/11/25 01:38:51;;;;;;;82.45;24.80;;;;;;;;;;5113541;27;20050;-41
2022/11/25 01:41:17;;;;;;;86.55;26.50;;;;;;;;;;5113693;27;20047;-44
2022/11/25 01:44:01;;;;;;;83.20;25.23;;;;;;;;;;5115024;27;20035;-42
2022/11/25 01:46:29;;;;;;;78.35;24.40;;;;;;;;;;5132409;27;20035;-43
2022/11/25 01:48:58;;;;;;;87.22;25.80;;;;;;;;;;5109852;27;20519;-41
2022/11/25 01:51:26;;;;;;;81.78;25.48;;;;;;;;;;5114379;27;20042;-41
2022/11/25 01:53:54;;;;;;;88.78;24.75;;;;;;;;;;5106088;27;20065;-41
2022/11/25 01:56:21;;;;;;;88.72;26.10;;;;;;;;;;5132546;27;20474;-41
2022/11/25 01:58:48;;;;;;;89.82;26.77;;;;;;;;;;5114751;27;20051;-42
2022/11/25 02:01:16;;;;;;;89.10;26.90;;;;;;;;;;5132098;27;20491;-41
2022/11/25 02:03:46;;;;;;;93.97;27.98;;;;;;;;;;5131453;27;20031;-42
2022/11/25 02:06:17;;;;;;;80.88;26.50;;;;;;;;;;5131677;27;20129;-41
2022/11/25 02:08:46;;;;;;;94.20;28.35;;;;;;;;;;5130991;27;20483;-41
2022/11/25 02:11:13;;;;;;;88.03;27.77;;;;;;;;;;5102550;27;20047;-41
2022/11/25 02:13:40;;;;;;;80.57;26.20;;;;;;;;;;5131993;27;20049;-42
2022/11/25 02:16:06;;;;;;;96.18;27.98;;;;;;;;;;5131082;27;20056;-41
2022/11/25 02:18:34;;;;;;;101.30;27.60;;;;;;;;;;5130882;27;20076;-42
2022/11/25 02:21:03;;;;;;;88.93;28.05;;;;;;;;;;5131254;27;20946;-41
2022/11/25 02:23:38;;;;;;;101.55;28.52;;;;;;;;;;5131369;27;20042;-41
2022/11/25 02:26:05;;;;;;;106.88;30.75;;;;;;;;;;5132142;27;20045;-42
2022/11/25 02:28:31;;;;;;;101.07;28.38;;;;;;;;;;5111989;27;20043;-41
2022/11/25 02:31:01;;;;;;;82.68;25.88;;;;;;;;;;5112337;27;20042;-42
2022/11/25 02:33:28;;;;;;;109.32;30.73;;;;;;;;;;5112713;27;20043;-42
2022/11/25 02:35:56;;;;;;;100.43;27.30;;;;;;;;;;5108903;27;20035;-41
2022/11/25 02:38:38;;;;;;;89.85;28.20;;;;;;;;;;5108437;27;20143;-41
2022/11/25 02:41:12;;;;;;;88.78;25.90;;;;;;;;;;5113027;27;20047;-42
2022/11/25 02:43:39;;;;;;;83.18;26.50;;;;;;;;;;5113348;27;20042;-43
2022/11/25 02:46:07;;;;;;;98.10;30.33;;;;;;;;;;5131125;27;20046;-42
2022/11/25 02:48:35;;;;;;;102.95;30.65;;;;;;;;;;5111216;27;20040;-41
2022/11/25 02:51:23;;;;;;;103.35;29.23;;;;;;;;;;5109014;27;20131;-43
2022/11/25 02:53:50;;;;;;;101.43;31.60;;;;;;;;;;5112981;27;20070;-41
2022/11/25 02:56:19;;;;;;;116.57;32.53;;;;;;;;;;5113119;27;20088;-41
2022/11/25 02:58:46;;;;;;;96.47;29.67;;;;;;;;;;5112461;27;20443;-41
2022/11/25 03:01:13;;;;;;;114.32;30.85;;;;;;;;;;5111916;27;20045;-42
2022/11/25 03:03:40;;;;;;;99.97;27.75;;;;;;;;;;5111727;27;20049;-41
2022/11/25 03:06:07;;;;;;;96.63;28.92;;;;;;;;;;5112005;27;20045;-42
2022/11/25 03:08:34;;;;;;;114.85;30.95;;;;;;;;;;5130100;27;20047;-42
2022/11/25 03:11:04;;;;;;;115.93;30.40;;;;;;;;;;5101780;27;20058;-43
2022/11/25 03:13:32;;;;;;;111.43;31.20;;;;;;;;;;5112469;27;20039;-42
2022/11/25 03:15:59;;;;;;;106.22;27.48;;;;;;;;;;5130447;27;20444;-42
2022/11/25 03:18:25;;;;;;;110.00;30.70;;;;;;;;;;5112034;27;20060;-41
2022/11/25 03:20:53;;;;;;;106.70;29.55;;;;;;;;;;5130921;27;20058;-41
2022/11/25 03:23:21;;;;;;;110.03;30.05;;;;;;;;;;5112707;27;20039;-42
2022/11/25 03:25:52;;;;;;;103.53;29.42;;;;;;;;;;5131265;27;20043;-41
2022/11/25 03:28:18;;;;;;;111.55;29.95;;;;;;;;;;5127854;27;20487;-42
2022/11/25 03:30:45;;;;;;;106.10;30.63;;;;;;;;;;5129430;27;20065;-41
2022/11/25 03:33:11;;;;;;;106.82;28.50;;;;;;;;;;5107710;28;20047;-42
2022/11/25 03:35:38;;;;;;;115.18;30.10;;;;;;;;;;5110811;27;20090;-42
2022/11/25 03:38:04;;;;;;;128.27;30.92;;;;;;;;;;5112419;27;20133;-42
2022/11/25 03:40:34;;;;;;;109.20;29.83;;;;;;;;;;5110861;27;20079;-41
2022/11/25 03:43:01;;;;;;;117.72;29.77;;;;;;;;;;5130213;27;20121;-42
2022/11/25 03:45:27;;;;;;;138.82;32.03;;;;;;;;;;5111371;27;20043;-41
2022/11/25 03:47:57;;;;;;;136.35;32.53;;;;;;;;;;5111936;27;20129;-42
2022/11/25 03:50:24;;;;;;;116.90;32.03;;;;;;;;;;5112084;27;20047;-41
2022/11/25 03:52:52;;;;;;;121.60;30.88;;;;;;;;;;5112417;27;20100;-41
2022/11/25 03:55:19;;;;;;;137.85;31.88;;;;;;;;;;5108421;27;20104;-41
2022/11/25 03:57:45;;;;;;;130.82;33.63;;;;;;;;;;5111307;27;20081;-41
2022/11/25 04:00:12;;;;;;;138.05;32.60;;;;;;;;;;5108279;28;20036;-41
2022/11/25 04:02:58;;;;;;;141.45;33.50;;;;;;;;;;5110377;27;20062;-41
2022/11/25 04:05:24;;;;;;;131.98;32.85;;;;;;;;;;5129404;27;20027;-41
2022/11/25 04:07:53;;;;;;;135.02;31.75;;;;;;;;;;5111768;27;20548;-41
2022/11/25 04:10:24;;;;;;;129.13;31.30;;;;;;;;;;5110135;27;20495;-41
2022/11/25 04:12:51;;;;;;;115.20;30.98;;;;;;;;;;5129459;27;20043;-42
2022/11/25 04:15:22;;;;;;;124.20;31.45;;;;;;;;;;5111394;27;20096;-41
2022/11/25 04:17:51;;;;;;;135.80;33.22;;;;;;;;;;5110232;27;20050;-41
2022/11/25 04:20:18;;;;;;;134.52;31.27;;;;;;;;;;5110893;27;20499;-41
2022/11/25 04:22:51;;;;;;;127.88;30.77;;;;;;;;;;5111042;27;20153;-42
2022/11/25 04:25:18;;;;;;;130.73;32.38;;;;;;;;;;5110038;27;20046;-41
2022/11/25 04:27:45;;;;;;;149.30;33.35;;;;;;;;;;5110666;27;20490;-41
2022/11/25 04:30:14;;;;;;;139.98;32.72;;;;;;;;;;5110674;27;20035;-43
2022/11/25 04:32:42;;;;;;;136.50;35.05;;;;;;;;;;5108918;27;20031;-41
2022/11/25 04:35:10;;;;;;;138.95;33.63;;;;;;;;;;5111375;27;20408;-41
2022/11/25 04:37:38;;;;;;;146.48;32.35;;;;;;;;;;5110614;27;20046;-41
2022/11/25 04:40:05;;;;;;;158.35;34.58;;;;;;;;;;5128114;27;20039;-42
2022/11/25 04:42:33;;;;;;;145.00;33.67;;;;;;;;;;5109398;27;20057;-41
2022/11/25 04:45:06;;;;;;;148.02;31.20;;;;;;;;;;5110757;27;20039;-41
2022/11/25 04:47:48;;;;;;;170.90;34.80;;;;;;;;;;5109743;27;20038;-41
2022/11/25 04:50:16;;;;;;;163.93;35.25;;;;;;;;;;5111717;27;20078;-41
2022/11/25 04:53:03;;;;;;;161.32;35.28;;;;;;;;;;5128826;27;20051;-41
2022/11/25 04:55:30;;;;;;;177.48;35.78;;;;;;;;;;5110303;27;20043;-41
2022/11/25 04:57:59;;;;;;;172.15;36.55;;;;;;;;;;5110128;27;20038;-41
2022/11/25 05:00:27;;;;;;;220.60;38.28;;;;;;;;;;5106879;27;20050;-41
2022/11/25 05:02:55;;;;;;;182.43;38.88;;;;;;;;;;5093058;27;20080;-42
2022/11/25 05:05:22;;;;;;;180.40;37.72;;;;;;;;;;5109882;28;20071;-41
2022/11/25 05:07:49;;;;;;;188.68;38.10;;;;;;;;;;5110745;27;20494;-41
2022/11/25 05:10:18;;;;;;;192.88;38.97;;;;;;;;;;5107955;27;20577;-42
2022/11/25 05:12:46;;;;;;;157.07;34.35;;;;;;;;;;5109997;27;20464;-42
2022/11/25 05:15:16;;;;;;;192.20;36.63;;;;;;;;;;5110712;28;20046;-43
2022/11/25 05:17:45;;;;;;;200.68;36.17;;;;;;;;;;5105177;27;20407;-42
2022/11/25 05:20:12;;;;;;;190.15;37.10;;;;;;;;;;5099675;28;20108;-42
2022/11/25 05:22:39;;;;;;;188.93;37.13;;;;;;;;;;5128639;27;20046;-42
2022/11/25 05:25:10;;;;;;;183.07;37.42;;;;;;;;;;5109451;28;20448;-43
2022/11/25 05:27:45;;;;;;;170.93;36.78;;;;;;;;;;5109896;28;20039;-41
2022/11/25 05:30:12;;;;;;;190.90;36.70;;;;;;;;;;5107403;27;20047;-41
2022/11/25 05:32:39;;;;;;;224.05;42.80;;;;;;;;;;5109269;28;20039;-44
2022/11/25 05:35:08;;;;;;;226.82;39.88;;;;;;;;;;5102026;28;20043;-41
2022/11/25 05:37:37;;;;;;;210.55;37.47;;;;;;;;;;5109236;27;20043;-41
2022/11/25 05:40:05;;;;;;;234.13;42.78;;;;;;;;;;5108910;27;20039;-42
2022/11/25 05:42:31;;;;;;;159.50;34.17;;;;;;;;;;5128282;27;20418;-41
2022/11/25 05:45:01;;;;;;;169.18;37.42;;;;;;;;;;5110037;28;20043;-42
2022/11/25 05:47:29;;;;;;;196.95;38.40;;;;;;;;;;5109769;28;20133;-41
2022/11/25 05:49:56;;;;;;;229.82;37.35;;;;;;;;;;5108518;27;20046;-42
2022/11/25 05:52:22;;;;;;;169.68;34.55;;;;;;;;;;5107049;28;20050;-41
2022/11/25 05:54:54;;;;;;;343.13;46.08;;;;;;;;;;5103014;28;20035;-42
2022/11/25 05:57:23;;;;;;;298.42;44.17;;;;;;;;;;5100574;28;20126;-42
2022/11/25 05:59:56;;;;;;;232.18;38.17;;;;;;;;;;5102115;28;20050;-41
2022/11/25 06:02:40;;;;;;;237.02;37.05;;;;;;;;;;5126784;28;20051;-41
2022/11/25 06:05:09;;;;;;;233.68;38.30;;;;;;;;;;5109629;28;20071;-41
2022/11/25 06:07:36;;;;;;;224.55;40.33;;;;;;;;;;5109223;28;20035;-42
2022/11/25 06:10:03;;;;;;;203.15;39.63;;;;;;;;;;5108634;27;20035;-44
2022/11/25 06:12:32;;;;;;;198.95;37.92;;;;;;;;;;5109748;28;20031;-43
2022/11/25 06:14:59;;;;;;;182.30;37.90;;;;;;;;;;5102106;27;20043;-41
2022/11/25 06:17:26;;;;;;;299.88;46.85;;;;;;;;;;5093252;28;20159;-40
2022/11/25 06:20:07;;;;;;;245.07;36.67;;;;;;;;;;5111181;27;20507;-42
2022/11/25 06:22:34;;;;;;;250.45;40.13;;;;;;;;;;5110541;27;20110;-41
2022/11/25 06:25:01;;;;;;;228.30;38.97;;;;;;;;;;5129430;27;20032;-42
2022/11/25 06:27:31;;;;;;;252.40;42.72;;;;;;;;;;5089214;27;20457;-41
2022/11/25 06:30:18;;;;;;;169.15;36.70;;;;;;;;;;5130915;27;20039;-41
2022/11/25 06:32:57;;;;;;;162.82;35.95;;;;;;;;;;5110466;27;20028;-41
2022/11/25 06:35:23;;;;;;;273.15;42.25;;;;;;;;;;5110333;27;20035;-41
2022/11/25 06:37:54;;;;;;;210.38;37.80;;;;;;;;;;5106137;27;20035;-42
2022/11/25 06:40:20;;;;;;;255.45;42.30;;;;;;;;;;5131366;27;20043;-41
2022/11/25 06:42:47;;;;;;;186.68;35.17;;;;;;;;;;5131448;27;20745;-42
2022/11/25 06:45:13;;;;;;;202.45;38.05;;;;;;;;;;5123255;27;20045;-41
2022/11/25 06:47:40;;;;;;;242.45;39.95;;;;;;;;;;5132089;27;20542;-41
2022/11/25 06:50:07;;;;;;;213.32;41.15;;;;;;;;;;5114433;27;20054;-41
2022/11/25 06:52:33;;;;;;;182.55;37.63;;;;;;;;;;5129854;27;20039;-42
2022/11/25 06:55:00;;;;;;;216.25;38.20;;;;;;;;;;5131317;27;20059;-42
2022/11/25 06:57:26;;;;;;;185.48;38.90;;;;;;;;;;5131518;27;20061;-41
2022/11/25 06:59:53;;;;;;;220.02;39.53;;;;;;;;;;5109887;27;20045;-41
2022/11/25 07:02:19;;;;;;;265.70;44.30;;;;;;;;;;5131329;27;20071;-41
2022/11/25 07:04:46;;;;;;;193.27;38.33;;;;;;;;;;5131602;27;20039;-41
2022/11/25 07:07:12;;;;;;;234.02;39.85;;;;;;;;;;5125604;27;20035;-40
2022/11/25 07:09:39;;;;;;;189.70;36.53;;;;;;;;;;5130084;27;20471;-41
2022/11/25 07:12:05;;;;;;;222.18;42.42;;;;;;;;;;5130621;27;20031;-41
2022/11/25 07:14:32;;;;;;;362.80;48.28;;;;;;;;;;5129944;27;20043;-43
2022/11/25 07:16:59;;;;;;;213.48;41.10;;;;;;;;;;5131500;27;20045;-40
2022/11/25 07:19:25;;;;;;;224.75;39.75;;;;;;;;;;5130726;27;20495;-41
2022/11/25 07:21:51;;;;;;;220.52;40.72;;;;;;;;;;5123775;27;20039;-42
2022/11/25 07:24:18;;;;;;;227.70;40.47;;;;;;;;;;5130747;27;20093;-41
2022/11/25 07:26:44;;;;;;;240.50;42.47;;;;;;;;;;5129171;27;20041;-40
2022/11/25 07:29:12;;;;;;;204.07;39.72;;;;;;;;;;5132182;27;20103;-41
2022/11/25 07:31:58;;;;;;;203.65;41.88;;;;;;;;;;5132182;27;20059;-41
2022/11/25 07:34:25;;;;;;;244.65;40.35;;;;;;;;;;5110768;27;20550;-41
2022/11/25 07:36:52;;;;;;;217.52;40.35;;;;;;;;;;5129657;27;20118;-42
2022/11/25 07:39:19;;;;;;;305.30;47.92;;;;;;;;;;5129998;27;20039;-42
2022/11/25 07:41:49;;;;;;;263.45;44.45;;;;;;;;;;5130656;27;20031;-41
2022/11/25 07:44:16;;;;;;;276.30;46.42;;;;;;;;;;5129653;27;20122;-42
2022/11/25 07:46:49;;;;;;;255.48;41.97;;;;;;;;;;5111160;27;20509;-41
2022/11/25 07:49:20;;;;;;;276.50;44.42;;;;;;;;;;5129815;27;20410;-41
2022/11/25 07:51:48;;;;;;;246.55;44.22;;;;;;;;;;5129455;27;20053;-41
2022/11/25 07:54:15;;;;;;;214.23;42.03;;;;;;;;;;5129686;27;20043;-41
2022/11/25 07:56:43;;;;;;;231.45;41.83;;;;;;;;;;5129445;27;20164;-42
2022/11/25 07:59:20;;;;;;;223.55;40.40;;;;;;;;;;5112101;27;20047;-41
2022/11/25 08:01:53;;;;;;;293.85;47.58;;;;;;;;;;5129965;27;20039;-41
2022/11/25 08:04:20;;;;;;;214.10;43.28;;;;;;;;;;5129455;27;20402;-40
2022/11/25 08:06:47;;;;;;;278.20;43.78;;;;;;;;;;5129433;27;20057;-41
2022/11/25 08:09:18;;;;;;;214.10;40.15;;;;;;;;;;5107620;27;20495;-41
2022/11/25 08:11:45;;;;;;;232.25;42.50;;;;;;;;;;5129297;27;20118;-41
2022/11/25 08:14:12;;;;;;;256.33;42.58;;;;;;;;;;5130562;27;20064;-41
2022/11/25 08:16:38;;;;;;;216.57;42.95;;;;;;;;;;5129410;27;20047;-41
2022/11/25 08:19:06;;;;;;;209.32;41.33;;;;;;;;;;5129189;27;20119;-42
2022/11/25 08:21:33;;;;;;;300.85;46.42;;;;;;;;;;5129698;27;20050;-41
2022/11/25 08:24:01;;;;;;;183.68;40.30;;;;;;;;;;5129441;27;20042;-42
2022/11/25 08:26:30;;;;;;;209.80;43.10;;;;;;;;;;5125765;27;20499;-41
2022/11/25 08:28:57;;;;;;;177.07;37.78;;;;;;;;;;5130311;27;20132;-40
2022/11/25 08:31:25;;;;;;;211.32;42.95;;;;;;;;;;5129056;27;20035;-41
2022/11/25 08:33:51;;;;;;;181.77;39.80;;;;;;;;;;5128722;27;20515;-40
2022/11/25 08:36:19;;;;;;;164.20;38.55;;;;;;;;;;5129377;27;20087;-40
2022/11/25 08:38:46;;;;;;;195.20;41.05;;;;;;;;;;5128990;27;20035;-40
2022/11/25 08:41:17;;;;;;;202.93;42.05;;;;;;;;;;5129837;27;20411;-40
2022/11/25 08:43:43;;;;;;;203.05;42.03;;;;;;;;;;5129323;27;20046;-40
2022/11/25 08:46:12;;;;;;;199.50;41.33;;;;;;;;;;5127900;27;20047;-40
2022/11/25 08:48:38;;;;;;;187.18;43.70;;;;;;;;;;5127095;27;20092;-40
2022/11/25 08:51:09;;;;;;;177.65;41.05;;;;;;;;;;5126424;27;20039;-40
2022/11/25 08:53:36;;;;;;;181.05;41.85;;;;;;;;;;5127034;27;20051;-40
2022/11/25 08:56:03;;;;;;;166.55;41.35;;;;;;;;;;5116545;27;20042;-43
2022/11/25 08:58:29;;;;;;;215.85;44.05;;;;;;;;;;5117339;27;20036;-40
2022/11/25 09:00:56;;;;;;;199.38;41.50;;;;;;;;;;5125506;27;20055;-43
2022/11/25 09:03:23;;;;;;;188.88;44.70;;;;;;;;;;5118044;27;20043;-41
2022/11/25 09:05:51;;;;;;;208.27;43.33;;;;;;;;;;5118374;27;20100;-41
2022/11/25 09:08:18;;;;;;;203.02;43.53;;;;;;;;;;5124366;27;20051;-41
2022/11/25 09:10:45;;;;;;;182.43;44.50;;;;;;;;;;5108955;27;20188;-40
2022/11/25 09:13:11;;;;;;;164.20;41.35;;;;;;;;;;5128761;27;20408;-40
2022/11/25 09:15:38;;;;;;;191.35;42.33;;;;;;;;;;5128704;27;20035;-40
2022/11/25 09:18:06;;;;;;;171.93;40.20;;;;;;;;;;5128231;27;20483;-41
2022/11/25 09:20:35;;;;;;;176.30;42.63;;;;;;;;;;5110136;27;20391;-41
2022/11/25 09:23:02;;;;;;;168.60;39.42;;;;;;;;;;5127056;28;20056;-40
2022/11/25 09:25:28;;;;;;;172.77;42.20;;;;;;;;;;5128722;27;20035;-41
2022/11/25 09:27:55;;;;;;;160.80;40.85;;;;;;;;;;5128751;27;20039;-41
2022/11/25 09:30:22;;;;;;;155.05;37.80;;;;;;;;;;5128531;27;20441;-40
2022/11/25 09:32:49;;;;;;;167.07;41.80;;;;;;;;;;5109962;28;20053;-41
2022/11/25 09:35:16;;;;;;;167.07;43.00;;;;;;;;;;5129791;27;20046;-41
2022/11/25 09:37:43;;;;;;;150.13;39.80;;;;;;;;;;5127946;27;20483;-41
2022/11/25 09:40:16;;;;;;;153.32;41.67;;;;;;;;;;5128310;27;20051;-41
2022/11/25 09:48:32;;;;;;;163.85;40.03;;;;;;;;;;5127161;27;20055;-41
2022/11/25 09:51:05;;;;;;;193.23;43.75;;;;;;;;;;5128280;27;20114;-41
2022/11/25 09:53:31;;;;;;;196.95;45.08;;;;;;;;;;5126436;27;20040;-41
2022/11/25 09:56:01;;;;;;;194.60;44.80;;;;;;;;;;5128972;27;20464;-40
2022/11/25 09:58:45;;;;;;;182.23;43.40;;;;;;;;;;5132043;27;20043;-41
2022/11/25 10:01:15;;;;;;;158.23;39.88;;;;;;;;;;5132045;27;20081;-41
2022/11/25 10:03:44;;;;;;;159.55;38.75;;;;;;;;;;5130347;27;20039;-40
2022/11/25 10:06:10;;;;;;;160.32;41.80;;;;;;;;;;5131684;27;20043;-40
2022/11/25 10:08:38;;;;;;;158.60;42.67;;;;;;;;;;5132430;27;20074;-43
2022/11/25 10:11:21;;;;;;;163.25;42.17;;;;;;;;;;5131475;27;20031;-41
2022/11/25 10:13:58;;;;;;;142.02;38.70;;;;;;;;;;5131317;27;20494;-41
2022/11/25 10:16:54;;;;;;;157.55;39.22;;;;;;;;;;5128955;27;20055;-40
2022/11/25 10:19:20;;;;;;;160.15;41.20;;;;;;;;;;5035903;28;20649;-41
2022/11/25 10:21:47;;;;;;;137.48;37.42;;;;;;;;;;5036298;28;20041;-40
2022/11/25 10:24:16;;;;;;;139.98;41.03;;;;;;;;;;5030074;28;20097;-40
2022/11/25 10:26:44;;;;;;;132.23;39.30;;;;;;;;;;5037592;28;20151;-41
2022/11/25 10:29:13;;;;;;;148.80;40.15;;;;;;;;;;5038096;28;20068;-41
2022/11/25 10:31:40;;;;;;;137.70;38.85;;;;;;;;;;5036956;28;20049;-41
2022/11/25 10:34:19;;;;;;;122.00;36.58;;;;;;;;;;5033662;28;20041;-42
2022/11/25 10:36:47;;;;;;;124.78;36.00;;;;;;;;;;5035063;28;20057;-49
2022/11/25 10:39:23;;;;;;;130.95;37.00;;;;;;;;;;5028701;28;20437;-45
2022/11/25 10:41:53;;;;;;;158.05;40.85;;;;;;;;;;5026656;28;20053;-43
2022/11/25 10:44:25;;;;;;;143.73;37.60;;;;;;;;;;5028710;28;20065;-43
2022/11/25 10:46:58;;;;;;;137.00;37.30;;;;;;;;;;5028987;28;20414;-45
2022/11/25 10:49:43;;;;;;;130.00;37.10;;;;;;;;;;5027847;28;20069;-43
2022/11/25 10:52:11;;;;;;;134.60;35.85;;;;;;;;;;5027876;28;20045;-45
2022/11/25 10:54:38;;;;;;;145.73;38.60;;;;;;;;;;5027476;28;20070;-47
2022/11/25 10:57:18;;;;;;;150.77;37.20;;;;;;;;;;5131489;27;20432;-42
2022/11/25 10:59:58;;;;;;;163.25;36.17;;;;;;;;;;5131243;27;20431;-45
2022/11/25 11:02:26;;;;;;;181.50;38.72;;;;;;;;;;5129888;27;20055;-43
2022/11/25 11:05:13;;;;;;;178.27;40.38;;;;;;;;;;5130406;27;20031;-43
2022/11/25 11:07:44;;;;;;;132.52;35.17;;;;;;;;;;5129933;27;20054;-45
2022/11/25 11:10:18;;;;;;;167.90;38.45;;;;;;;;;;5112110;27;20035;-46
2022/11/25 11:12:50;;;;;;;170.55;38.35;;;;;;;;;;5127165;27;20039;-46
2022/11/25 11:15:21;;;;;;;159.15;36.38;;;;;;;;;;5128477;27;20088;-46
2022/11/25 11:17:47;;;;;;;180.57;40.05;;;;;;;;;;5128638;27;20084;-45
2022/11/25 11:20:20;;;;;;;146.50;34.22;;;;;;;;;;5127053;27;20039;-46
2022/11/25 11:22:49;;;;;;;158.32;37.47;;;;;;;;;;5130826;27;20495;-47
2022/11/25 11:25:18;;;;;;;176.80;40.15;;;;;;;;;;5127043;27;20384;-45
2022/11/25 11:27:46;;;;;;;197.38;45.33;;;;;;;;;;5128810;27;20078;-45
2022/11/25 11:30:16;;;;;;;221.73;45.50;;;;;;;;;;5110833;27;20042;-46
2022/11/25 11:32:44;;;;;;;170.45;38.25;;;;;;;;;;5121192;27;20411;-49
2022/11/25 11:35:13;;;;;;;169.82;37.20;;;;;;;;;;5129884;27;20035;-46
2022/11/25 11:37:44;;;;;;;163.02;38.47;;;;;;;;;;5130128;27;20038;-48
2022/11/25 11:40:14;;;;;;;178.23;38.05;;;;;;;;;;5126555;27;20812;-48
2022/11/25 11:42:43;;;;;;;180.77;38.67;;;;;;;;;;5130293;27;20486;-51
2022/11/25 11:45:28;;;;;;;150.90;35.97;;;;;;;;;;5112279;27;20043;-48
2022/11/25 11:48:06;;;;;;;158.07;35.08;;;;;;;;;;5129908;27;20056;-49
2022/11/25 11:50:50;;;;;;;170.57;39.70;;;;;;;;;;5130379;27;20473;-47
2022/11/25 11:53:19;;;;;;;160.63;36.75;;;;;;;;;;5130996;27;20047;-48
2022/11/25 11:56:04;;;;;;;180.23;39.67;;;;;;;;;;5129615;27;20506;-49
2022/11/25 11:58:51;;;;;;;164.90;39.22;;;;;;;;;;5130138;27;20520;-49
2022/11/25 12:01:19;;;;;;;190.40;43.00;;;;;;;;;;5130098;27;20066;-47
2022/11/25 12:04:01;;;;;;;159.05;36.25;;;;;;;;;;5129964;27;20043;-48
2022/11/25 12:06:30;;;;;;;177.88;41.60;;;;;;;;;;5127545;27;20039;-48
2022/11/25 12:09:03;;;;;;;154.90;37.75;;;;;;;;;;5129788;27;20445;-47
2022/11/25 12:11:35;;;;;;;177.45;37.65;;;;;;;;;;5129065;27;20450;-51
2022/11/25 12:14:08;;;;;;;156.97;39.60;;;;;;;;;;5129529;27;20047;-47
2022/11/25 12:16:39;;;;;;;203.88;40.63;;;;;;;;;;5128848;27;20052;-49
2022/11/25 12:19:19;;;;;;;164.70;38.35;;;;;;;;;;5124920;27;20035;-48
2022/11/25 12:21:49;;;;;;;165.77;38.60;;;;;;;;;;5128884;27;20095;-52
2022/11/25 12:24:28;;;;;;;165.10;40.05;;;;;;;;;;5128974;27;20035;-53
2022/11/25 12:27:13;;;;;;;155.82;36.75;;;;;;;;;;5125958;27;20042;-51
2022/11/25 12:29:56;;;;;;;190.27;40.92;;;;;;;;;;5128482;27;20457;-50
2022/11/25 12:32:29;;;;;;;171.60;39.47;;;;;;;;;;5129853;27;20046;-53
2022/11/25 12:35:13;;;;;;;148.57;35.35;;;;;;;;;;5129511;27;20096;-49
2022/11/25 12:37:45;;;;;;;141.23;35.67;;;;;;;;;;5128054;27;20118;-47
2022/11/25 12:40:17;;;;;;;142.67;36.57;;;;;;;;;;5125177;27;20120;-48
2022/11/25 12:42:44;;;;;;;156.00;37.47;;;;;;;;;;5106513;27;20062;-52
2022/11/25 12:45:10;;;;;;;157.32;38.63;;;;;;;;;;5129592;27;20039;-48
2022/11/25 12:47:37;;;;;;;171.38;36.90;;;;;;;;;;5129465;27;20509;-48
2022/11/25 12:50:04;;;;;;;160.95;37.90;;;;;;;;;;5129983;27;20050;-50
2022/11/25 12:52:47;;;;;;;153.23;38.10;;;;;;;;;;5128723;27;20046;-51
2022/11/25 12:55:18;;;;;;;148.70;35.92;;;;;;;;;;5128385;27;20046;-53
2022/11/25 12:57:47;;;;;;;174.70;38.33;;;;;;;;;;5128857;27;20096;-53
2022/11/25 13:00:20;;;;;;;145.15;36.20;;;;;;;;;;5129129;27;20043;-48
2022/11/25 13:03:15;;;;;;;156.60;38.58;;;;;;;;;;5125744;27;20151;-50
2022/11/25 13:06:00;;;;;;;149.05;37.78;;;;;;;;;;5128932;27;20054;-52
2022/11/25 13:08:27;;;;;;;158.43;37.13;;;;;;;;;;5128237;27;20502;-50
2022/11/25 13:11:05;;;;;;;147.85;38.95;;;;;;;;;;5128717;27;20047;-48
2022/11/25 13:13:53;;;;;;;140.00;34.50;;;;;;;;;;5128924;27;20046;-49
2022/11/25 13:16:20;;;;;;;167.48;38.83;;;;;;;;;;5024804;28;20064;-48
2022/11/25 13:18:48;;;;;;;141.70;35.88;;;;;;;;;;5024470;28;20575;-51
2022/11/25 13:21:16;;;;;;;184.07;39.40;;;;;;;;;;5024772;28;20068;-49
2022/11/25 13:23:51;;;;;;;165.00;39.58;;;;;;;;;;5024903;28;20054;-47
2022/11/25 13:26:36;;;;;;;145.80;40.35;;;;;;;;;;5026077;28;20128;-52
2022/11/25 13:29:25;;;;;;;172.32;39.22;;;;;;;;;;5023847;28;20133;-49
2022/11/25 13:32:01;;;;;;;161.35;38.92;;;;;;;;;;5027495;28;20107;-49
2022/11/25 13:34:34;;;;;;;183.35;41.05;;;;;;;;;;5028736;28;20049;-50
2022/11/25 13:37:21;;;;;;;164.13;41.85;;;;;;;;;;5025900;28;20049;-48
2022/11/25 13:39:48;;;;;;;158.20;39.75;;;;;;;;;;5028346;28;20065;-49
2022/11/25 13:42:20;;;;;;;161.52;39.20;;;;;;;;;;5029331;28;20115;-48
2022/11/25 13:44:51;;;;;;;213.63;52.03;;;;;;;;;;5029034;28;20111;-50
2022/11/25 13:47:22;;;;;;;191.32;50.30;;;;;;;;;;5030066;28;20057;-50
2022/11/25 13:49:48;;;;;;;184.68;50.22;;;;;;;;;;5012678;28;20046;-54
2022/11/25 13:52:14;;;;;;;179.38;44.05;;;;;;;;;;5028375;28;20049;-49
2022/11/25 13:54:47;;;;;;;191.43;45.45;;;;;;;;;;5130001;27;20042;-50
2022/11/25 13:57:13;;;;;;;194.80;43.00;;;;;;;;;;5114190;27;20057;-49
2022/11/25 13:59:40;;;;;;;175.90;42.58;;;;;;;;;;5132661;27;20046;-49
2022/11/25 14:02:23;;;;;;;166.77;42.72;;;;;;;;;;5133418;27;20051;-54
2022/11/25 14:04:53;;;;;;;177.85;41.42;;;;;;;;;;5132752;27;20054;-49
2022/11/25 14:07:29;;;;;;;182.52;44.17;;;;;;;;;;5132170;27;20073;-53
2022/11/25 14:10:12;;;;;;;193.75;46.13;;;;;;;;;;5109765;27;20032;-51
2022/11/25 14:12:42;;;;;;;202.45;44.10;;;;;;;;;;5131833;27;20764;-51
2022/11/25 14:15:28;;;;;;;185.90;45.67;;;;;;;;;;5132481;27;20042;-50
2022/11/25 14:17:58;;;;;;;190.18;43.97;;;;;;;;;;5131227;27;20035;-50
2022/11/25 14:20:37;;;;;;;184.27;41.70;;;;;;;;;;5132436;27;20035;-51
2022/11/25 14:23:23;;;;;;;179.15;43.40;;;;;;;;;;5131523;27;20617;-52
2022/11/25 14:25:51;;;;;;;198.60;45.97;;;;;;;;;;5131725;27;20071;-50
2022/11/25 14:28:28;;;;;;;186.20;44.15;;;;;;;;;;5128417;27;20039;-51
2022/11/25 14:30:59;;;;;;;170.18;42.45;;;;;;;;;;5131867;27;20035;-51